Time;durP1;ratioP1;P1;durP2;ratioP2;P2;SDS_P1;SDS_P2;PMS_P1;PMS_P2;Temp;Humidity;BMP_temperature;BMP_pressure;BME280_temperature;BME280_humidity;BME280_pressure;Samples;Min_cycle;Max_cycle;Signal;HPM_P1;HPM_P2
2023/08/05 00:01:00;;;;;;;14.90;6.07;;;15.70;99.90;;;;;;5029080;28;20029;-63
2023/08/05 00:03:26;;;;;;;10.18;5.88;;;15.70;99.90;;;;;;5025713;28;20041;-61
2023/08/05 00:05:52;;;;;;;9.95;5.90;;;15.70;99.90;;;;;;5026935;28;20040;-61
2023/08/05 00:08:17;;;;;;;15.77;6.35;;;15.60;99.90;;;;;;5026718;28;20017;-61
2023/08/05 00:10:44;;;;;;;11.52;5.78;;;15.60;99.90;;;;;;5032591;28;20030;-61
2023/08/05 00:13:10;;;;;;;8.70;6.00;;;15.50;99.90;;;;;;5028712;28;20022;-61
2023/08/05 00:15:35;;;;;;;11.40;5.68;;;15.60;99.90;;;;;;5030312;28;20492;-62
2023/08/05 00:18:01;;;;;;;8.20;5.85;;;15.60;99.90;;;;;;5031474;28;20032;-60
2023/08/05 00:20:26;;;;;;;11.38;6.03;;;15.60;99.90;;;;;;5027214;28;20033;-56
2023/08/05 00:22:52;;;;;;;17.00;6.22;;;15.50;99.90;;;;;;5032829;28;20033;-62
2023/08/05 00:25:18;;;;;;;14.30;6.30;;;15.50;99.90;;;;;;5032983;28;20151;-61
2023/08/05 00:27:43;;;;;;;18.85;6.72;;;15.50;99.90;;;;;;5036737;28;20158;-60
2023/08/05 00:30:09;;;;;;;8.90;6.13;;;15.50;99.90;;;;;;5029963;28;20374;-61
2023/08/05 00:32:36;;;;;;;9.98;5.35;;;15.40;99.90;;;;;;5034188;28;20044;-61
2023/08/05 00:35:03;;;;;;;9.90;5.78;;;15.40;99.90;;;;;;5034142;28;20036;-59
2023/08/05 00:37:29;;;;;;;14.60;6.85;;;15.40;99.90;;;;;;5030056;28;20409;-61
2023/08/05 00:39:54;;;;;;;14.70;7.57;;;15.40;99.90;;;;;;5031980;28;20017;-61
2023/08/05 00:42:20;;;;;;;12.48;7.35;;;15.40;99.90;;;;;;5035641;28;20029;-60
2023/08/05 00:44:46;;;;;;;15.32;8.30;;;15.30;99.90;;;;;;5032443;28;20029;-61
2023/08/05 00:47:12;;;;;;;17.20;7.97;;;15.30;99.90;;;;;;5031754;28;20035;-60
2023/08/05 00:49:38;;;;;;;12.70;7.85;;;15.30;99.90;;;;;;5034251;28;20028;-58
2023/08/05 00:52:06;;;;;;;18.30;7.68;;;15.20;99.90;;;;;;5033607;28;20129;-61
2023/08/05 00:54:32;;;;;;;12.88;6.93;;;15.10;99.90;;;;;;5046989;28;20544;-59
2023/08/05 00:56:58;;;;;;;12.30;7.03;;;15.20;99.90;;;;;;5034174;28;20029;-62
2023/08/05 00:59:23;;;;;;;12.27;7.10;;;15.20;99.90;;;;;;5034892;28;20029;-61
2023/08/05 01:01:49;;;;;;;15.63;8.23;;;15.20;99.90;;;;;;5030505;28;20091;-61
2023/08/05 01:04:15;;;;;;;14.35;8.23;;;15.20;99.90;;;;;;5027651;28;20041;-60
2023/08/05 01:06:41;;;;;;;10.60;7.50;;;15.20;99.90;;;;;;5036283;28;20025;-59
2023/08/05 01:09:06;;;;;;;16.15;8.25;;;15.20;99.90;;;;;;5030594;28;20116;-62
2023/08/05 01:11:32;;;;;;;12.32;7.38;;;15.20;99.90;;;;;;5037781;28;20113;-62
2023/08/05 01:13:57;;;;;;;15.10;7.53;;;15.00;99.90;;;;;;5031931;28;20049;-61
2023/08/05 01:16:23;;;;;;;14.10;8.55;;;15.00;99.90;;;;;;5027529;28;20030;-58
2023/08/05 01:18:49;;;;;;;14.43;8.77;;;14.90;99.90;;;;;;5035413;28;20036;-62
2023/08/05 01:21:22;;;;;;;23.50;9.23;;;14.80;99.90;;;;;;5030927;28;20029;-60
2023/08/05 01:23:48;;;;;;;13.68;8.50;;;14.70;99.90;;;;;;5029753;28;20105;-63
2023/08/05 01:26:14;;;;;;;14.18;9.40;;;14.50;99.90;;;;;;5029317;28;20099;-60
2023/08/05 01:28:40;;;;;;;22.98;11.20;;;14.60;99.90;;;;;;5034318;28;20090;-62
2023/08/05 01:31:06;;;;;;;24.33;12.20;;;14.50;99.90;;;;;;5030424;28;20457;-63
2023/08/05 01:33:33;;;;;;;25.35;12.85;;;14.40;99.90;;;;;;5033092;28;20108;-61
2023/08/05 01:35:58;;;;;;;18.48;11.88;;;14.40;99.90;;;;;;5033638;28;20028;-61
2023/08/05 01:38:24;;;;;;;19.90;11.23;;;14.40;99.90;;;;;;5035515;28;20490;-60
2023/08/05 01:40:49;;;;;;;17.60;10.32;;;14.30;99.90;;;;;;5029970;28;20040;-63
2023/08/05 01:43:15;;;;;;;21.05;10.02;;;14.40;99.90;;;;;;5033310;28;20047;-61
2023/08/05 01:45:40;;;;;;;16.70;10.38;;;14.30;99.90;;;;;;5032106;28;20030;-62
2023/08/05 01:48:06;;;;;;;24.45;10.70;;;14.20;99.90;;;;;;5037606;28;20029;-62
2023/08/05 01:50:33;;;;;;;18.35;9.40;;;14.20;99.90;;;;;;5028287;28;20045;-61
2023/08/05 01:52:58;;;;;;;23.23;10.88;;;14.30;99.90;;;;;;5035253;28;20022;-60
2023/08/05 01:55:24;;;;;;;16.30;10.18;;;14.30;99.90;;;;;;5029839;28;20040;-61
2023/08/05 01:57:49;;;;;;;16.20;9.80;;;14.20;99.90;;;;;;5028585;28;20483;-61
2023/08/05 02:00:15;;;;;;;17.75;10.70;;;14.10;99.90;;;;;;5027462;28;20037;-61
2023/08/05 02:02:40;;;;;;;16.08;9.38;;;14.10;99.90;;;;;;5027475;28;20035;-61
2023/08/05 02:05:06;;;;;;;18.45;10.07;;;14.10;99.90;;;;;;5031941;28;20021;-61
2023/08/05 02:07:32;;;;;;;16.05;9.35;;;14.10;99.90;;;;;;5031716;28;20440;-60
2023/08/05 02:09:57;;;;;;;16.27;10.48;;;14.10;99.90;;;;;;5031987;28;20023;-61
2023/08/05 02:12:23;;;;;;;22.92;11.23;;;14.10;99.90;;;;;;5036521;28;20033;-61
2023/08/05 02:14:48;;;;;;;23.10;10.48;;;14.10;99.90;;;;;;5035872;28;20523;-62
2023/08/05 02:17:14;;;;;;;19.35;11.38;;;14.10;99.90;;;;;;5035627;28;20041;-61
2023/08/05 02:19:39;;;;;;;22.25;10.10;;;14.10;99.90;;;;;;5037610;28;20043;-63
2023/08/05 02:22:05;;;;;;;16.77;9.82;;;14.10;99.90;;;;;;5033188;28;20057;-62
2023/08/05 02:24:31;;;;;;;22.52;10.40;;;14.10;99.90;;;;;;5036944;28;20107;-61
2023/08/05 02:26:56;;;;;;;16.02;10.45;;;14.00;99.90;;;;;;5032165;28;20052;-61
2023/08/05 02:29:22;;;;;;;20.40;10.20;;;14.00;99.90;;;;;;5029508;28;20034;-61
2023/08/05 02:31:48;;;;;;;14.55;10.90;;;13.90;99.90;;;;;;5026728;28;20096;-60
2023/08/05 02:34:13;;;;;;;16.40;10.65;;;13.90;99.90;;;;;;5029505;28;20033;-61
2023/08/05 02:36:39;;;;;;;18.55;10.55;;;13.90;99.90;;;;;;5029246;28;20033;-63
2023/08/05 02:39:04;;;;;;;23.27;9.55;;;13.90;99.90;;;;;;5035145;28;20043;-60
2023/08/05 02:41:30;;;;;;;18.10;10.25;;;13.90;99.90;;;;;;5028360;28;20482;-61
2023/08/05 02:43:55;;;;;;;21.20;10.95;;;13.80;99.90;;;;;;5029463;28;20021;-61
2023/08/05 02:46:21;;;;;;;17.60;9.88;;;13.80;99.90;;;;;;5026721;28;20112;-63
2023/08/05 02:48:46;;;;;;;18.55;10.57;;;13.80;99.90;;;;;;5028479;28;20055;-63
2023/08/05 02:51:12;;;;;;;14.48;8.98;;;13.80;99.90;;;;;;5030158;28;20403;-61
2023/08/05 02:53:37;;;;;;;12.95;9.52;;;13.80;99.90;;;;;;5031563;28;20603;-63
2023/08/05 02:56:03;;;;;;;18.48;9.52;;;13.70;99.90;;;;;;5031220;28;20029;-61
2023/08/05 02:58:29;;;;;;;14.20;8.70;;;13.70;99.90;;;;;;5028355;28;20033;-62
2023/08/05 03:00:54;;;;;;;14.52;8.48;;;13.80;99.90;;;;;;5030236;28;20026;-61
2023/08/05 03:03:20;;;;;;;18.17;8.98;;;13.80;99.90;;;;;;5034551;28;20104;-61
2023/08/05 03:05:45;;;;;;;14.02;8.65;;;13.90;99.90;;;;;;5029081;28;20052;-62
2023/08/05 03:08:11;;;;;;;21.42;8.65;;;13.80;99.90;;;;;;5030282;28;20401;-61
2023/08/05 03:10:40;;;;;;;15.50;10.18;;;13.80;99.90;;;;;;5034364;28;20032;-62
2023/08/05 03:13:06;;;;;;;16.42;8.45;;;13.80;99.90;;;;;;5029868;28;20029;-62
2023/08/05 03:15:31;;;;;;;19.05;8.50;;;13.90;99.90;;;;;;5030156;28;20034;-62
2023/08/05 03:17:57;;;;;;;15.48;9.90;;;13.90;99.90;;;;;;5034273;28;20053;-62
2023/08/05 03:20:28;;;;;;;18.08;9.68;;;14.10;99.90;;;;;;5033964;28;20493;-61
2023/08/05 03:22:55;;;;;;;15.57;9.60;;;14.10;99.90;;;;;;5030368;28;20032;-58
2023/08/05 03:25:21;;;;;;;18.30;8.85;;;14.10;99.90;;;;;;5031639;28;20033;-61
2023/08/05 03:27:49;;;;;;;16.83;9.43;;;14.10;99.90;;;;;;5030166;28;20033;-63
2023/08/05 03:30:15;;;;;;;18.77;10.05;;;14.10;99.90;;;;;;5030912;28;20029;-63
2023/08/05 03:32:41;;;;;;;16.00;9.52;;;14.10;99.90;;;;;;5036153;28;20034;-62
2023/08/05 03:35:07;;;;;;;15.00;10.40;;;14.10;99.90;;;;;;5031186;28;20034;-61
2023/08/05 03:37:32;;;;;;;15.43;9.40;;;14.10;99.90;;;;;;5031531;28;20034;-60
2023/08/05 03:39:58;;;;;;;17.52;9.30;;;14.10;99.90;;;;;;5028626;28;20382;-61
2023/08/05 03:42:24;;;;;;;16.90;8.70;;;14.10;99.90;;;;;;5031887;28;20493;-61
2023/08/05 03:44:49;;;;;;;14.45;9.20;;;14.10;99.90;;;;;;5030557;28;20025;-61
2023/08/05 03:47:15;;;;;;;18.08;9.52;;;14.10;99.90;;;;;;5028257;28;20042;-62
2023/08/05 03:49:41;;;;;;;17.63;9.18;;;14.10;99.90;;;;;;5028551;28;20539;-61
2023/08/05 03:52:08;;;;;;;13.90;8.90;;;14.10;99.90;;;;;;5032712;28;20615;-62
2023/08/05 03:54:34;;;;;;;13.65;8.50;;;14.10;99.90;;;;;;5027837;28;20516;-61
2023/08/05 03:56:59;;;;;;;13.80;7.75;;;14.10;99.90;;;;;;5030475;28;20038;-61
2023/08/05 03:59:25;;;;;;;14.45;8.70;;;14.20;99.90;;;;;;5037844;28;20025;-61
2023/08/05 04:01:51;;;;;;;12.05;7.85;;;14.20;99.90;;;;;;5032209;28;20151;-62
2023/08/05 04:04:17;;;;;;;13.27;7.40;;;14.20;99.90;;;;;;5035807;28;20106;-61
2023/08/05 04:06:45;;;;;;;19.33;8.85;;;14.30;99.90;;;;;;5039446;28;20094;-60
2023/08/05 04:09:10;;;;;;;22.25;8.63;;;14.30;99.90;;;;;;5033438;28;20028;-62
2023/08/05 04:11:37;;;;;;;13.98;8.57;;;14.30;99.90;;;;;;5039635;28;20108;-60
2023/08/05 04:14:03;;;;;;;12.77;7.60;;;14.30;99.90;;;;;;5032928;28;20087;-60
2023/08/05 04:16:30;;;;;;;16.23;8.55;;;14.40;99.90;;;;;;5033530;28;20100;-61
2023/08/05 04:18:57;;;;;;;15.20;7.82;;;14.30;99.90;;;;;;5038178;28;20048;-61
2023/08/05 04:21:27;;;;;;;18.38;8.77;;;14.20;99.90;;;;;;5033093;28;20021;-59
2023/08/05 04:23:54;;;;;;;13.98;8.02;;;14.20;99.90;;;;;;5039131;28;20075;-62
2023/08/05 04:26:20;;;;;;;12.75;7.78;;;14.10;99.90;;;;;;5028938;28;20026;-59
2023/08/05 04:28:45;;;;;;;16.55;8.07;;;14.20;99.90;;;;;;5039752;28;20400;-62
2023/08/05 04:31:11;;;;;;;17.30;9.23;;;14.10;99.90;;;;;;5031613;28;20493;-62
2023/08/05 04:33:36;;;;;;;17.23;8.38;;;14.10;99.90;;;;;;5039989;28;20477;-62
2023/08/05 04:36:02;;;;;;;23.40;8.98;;;14.00;99.90;;;;;;5033885;28;20029;-62
2023/08/05 04:38:28;;;;;;;13.93;8.90;;;14.00;99.90;;;;;;5034992;28;20032;-59
2023/08/05 04:40:53;;;;;;;17.70;8.93;;;14.00;99.90;;;;;;5036685;28;20025;-61
2023/08/05 04:43:19;;;;;;;17.42;9.63;;;14.00;99.90;;;;;;5032886;28;20025;-64
2023/08/05 04:45:50;;;;;;;19.08;9.10;;;14.00;99.90;;;;;;5031139;28;20053;-62
2023/08/05 04:48:15;;;;;;;19.65;9.48;;;14.10;99.90;;;;;;5042877;28;20037;-60
2023/08/05 04:50:41;;;;;;;15.00;9.02;;;14.10;99.90;;;;;;5031362;28;20044;-62
2023/08/05 04:53:06;;;;;;;19.30;8.93;;;14.20;99.90;;;;;;5037141;28;20030;-62
2023/08/05 04:55:32;;;;;;;14.40;8.15;;;14.20;99.90;;;;;;5038373;28;20120;-61
2023/08/05 04:57:58;;;;;;;18.20;8.77;;;14.30;99.90;;;;;;5033968;28;20049;-61
2023/08/05 05:00:25;;;;;;;21.67;9.30;;;14.30;99.90;;;;;;5030786;28;20559;-63
2023/08/05 05:02:51;;;;;;;11.77;7.75;;;14.30;99.90;;;;;;5035681;28;20021;-62
2023/08/05 05:05:17;;;;;;;18.15;9.18;;;14.40;99.90;;;;;;5031232;28;20044;-63
2023/08/05 05:07:42;;;;;;;15.75;9.40;;;14.50;99.90;;;;;;5037812;28;20033;-64
2023/08/05 05:10:08;;;;;;;15.55;9.05;;;14.40;99.90;;;;;;5033314;28;20041;-62
2023/08/05 05:12:33;;;;;;;15.05;9.43;;;14.50;99.90;;;;;;5034619;28;20030;-59
2023/08/05 05:14:59;;;;;;;19.95;10.35;;;14.50;99.90;;;;;;5031381;28;20041;-62
2023/08/05 05:17:24;;;;;;;19.13;10.70;;;14.60;99.90;;;;;;5032100;28;20040;-62
2023/08/05 05:19:51;;;;;;;15.52;9.60;;;14.60;99.90;;;;;;5034678;28;20056;-62
2023/08/05 05:22:17;;;;;;;16.40;8.80;;;14.70;99.90;;;;;;5037201;28;20097;-61
2023/08/05 05:24:48;;;;;;;15.38;8.63;;;14.80;99.90;;;;;;5034386;28;20029;-62
2023/08/05 05:27:14;;;;;;;20.13;10.43;;;14.90;99.90;;;;;;5036676;28;20029;-61
2023/08/05 05:29:41;;;;;;;20.38;12.65;;;15.00;99.90;;;;;;5032478;28;20447;-60
2023/08/05 05:32:06;;;;;;;20.45;13.10;;;15.10;99.90;;;;;;5034809;28;20067;-59
2023/08/05 05:34:32;;;;;;;21.60;12.80;;;15.10;99.90;;;;;;5033151;28;20497;-60
2023/08/05 05:36:57;;;;;;;23.40;11.85;;;15.20;99.90;;;;;;5029816;28;20034;-63
2023/08/05 05:39:23;;;;;;;25.48;12.45;;;15.20;99.90;;;;;;5038344;28;20033;-60
2023/08/05 05:41:48;;;;;;;26.35;12.75;;;15.20;99.90;;;;;;5033586;28;20029;-62
2023/08/05 05:44:14;;;;;;;24.10;13.95;;;15.30;99.90;;;;;;5034963;28;20020;-62
2023/08/05 05:46:40;;;;;;;18.02;11.10;;;15.30;99.90;;;;;;5035173;28;20025;-60
2023/08/05 05:49:06;;;;;;;21.23;14.43;;;15.40;99.90;;;;;;5030685;28;20033;-62
2023/08/05 05:51:32;;;;;;;22.70;13.98;;;15.40;99.90;;;;;;5035098;28;21671;-61
2023/08/05 05:53:58;;;;;;;23.17;12.95;;;15.40;99.90;;;;;;5035273;28;20036;-63
2023/08/05 05:56:23;;;;;;;24.48;12.63;;;15.40;99.90;;;;;;5032898;28;20064;-62
2023/08/05 05:58:50;;;;;;;18.95;12.82;;;15.50;99.90;;;;;;5030070;28;20481;-62
2023/08/05 06:01:16;;;;;;;26.75;13.88;;;15.60;99.90;;;;;;5028709;28;20021;-62
2023/08/05 06:03:42;;;;;;;24.38;13.60;;;15.60;99.90;;;;;;5036873;28;20025;-61
2023/08/05 06:06:07;;;;;;;26.42;12.45;;;15.60;99.90;;;;;;5030462;28;20030;-61
2023/08/05 06:08:34;;;;;;;23.42;14.13;;;15.60;99.90;;;;;;5035505;28;20032;-62
2023/08/05 06:11:03;;;;;;;24.30;11.90;;;15.70;99.90;;;;;;5030479;28;20048;-63
2023/08/05 06:13:29;;;;;;;19.38;11.65;;;15.70;99.90;;;;;;5033572;28;20041;-61
2023/08/05 06:15:55;;;;;;;17.05;11.50;;;15.60;99.90;;;;;;5031342;28;20025;-61
2023/08/05 06:18:21;;;;;;;19.92;10.57;;;15.60;99.90;;;;;;5039998;28;20175;-62
2023/08/05 06:20:48;;;;;;;15.75;10.15;;;15.60;99.90;;;;;;5026812;28;20025;-62
2023/08/05 06:23:14;;;;;;;15.10;10.40;;;15.70;99.90;;;;;;5030822;28;20026;-60
2023/08/05 06:25:39;;;;;;;22.80;9.98;;;15.60;99.90;;;;;;5032036;28;20477;-62
2023/08/05 06:28:05;;;;;;;17.02;9.90;;;15.60;99.90;;;;;;5032977;28;20037;-63
2023/08/05 06:30:31;;;;;;;19.20;10.55;;;15.60;99.90;;;;;;5033661;28;20444;-63
2023/08/05 06:32:56;;;;;;;19.98;10.50;;;15.50;99.90;;;;;;5039672;28;21700;-61
2023/08/05 06:35:22;;;;;;;16.25;10.63;;;15.50;99.90;;;;;;5033164;28;20064;-63
2023/08/05 06:37:47;;;;;;;18.13;9.95;;;15.60;99.90;;;;;;5035858;28;20025;-63
2023/08/05 06:40:13;;;;;;;15.23;8.75;;;15.60;99.90;;;;;;5034122;28;20128;-62
2023/08/05 06:42:38;;;;;;;15.50;9.07;;;15.60;99.90;;;;;;5032885;28;20127;-62
2023/08/05 06:45:05;;;;;;;17.48;11.00;;;15.60;99.90;;;;;;5033422;28;20036;-62
2023/08/05 06:47:31;;;;;;;11.98;9.25;;;15.50;99.90;;;;;;5029799;28;20100;-63
2023/08/05 06:50:02;;;;;;;14.15;9.88;;;15.50;99.90;;;;;;5035007;28;20120;-61
2023/08/05 06:52:28;;;;;;;12.63;9.27;;;15.50;99.90;;;;;;5029239;28;20033;-62
2023/08/05 06:54:55;;;;;;;13.25;8.50;;;15.60;99.90;;;;;;5033077;28;20073;-62
2023/08/05 06:57:21;;;;;;;15.75;9.68;;;15.60;99.90;;;;;;5030000;28;20052;-61
2023/08/05 06:59:46;;;;;;;18.75;10.65;;;15.60;99.90;;;;;;5030388;28;20568;-60
2023/08/05 07:02:12;;;;;;;13.88;9.43;;;15.70;99.90;;;;;;5040363;28;20055;-62
2023/08/05 07:04:37;;;;;;;17.95;9.77;;;15.80;99.90;;;;;;5032656;28;20078;-62
2023/08/05 07:07:03;;;;;;;16.35;10.38;;;15.80;99.90;;;;;;5030007;28;20090;-63
2023/08/05 07:09:29;;;;;;;19.27;10.20;;;15.70;99.90;;;;;;5032979;28;20037;-60
2023/08/05 07:11:54;;;;;;;19.98;10.02;;;15.70;99.90;;;;;;5029062;28;20029;-57
2023/08/05 07:14:20;;;;;;;15.38;10.13;;;15.70;99.90;;;;;;5033945;28;20504;-54
2023/08/05 07:16:46;;;;;;;16.25;10.57;;;15.60;99.90;;;;;;5027348;28;20022;-57
2023/08/05 07:19:11;;;;;;;15.77;9.48;;;15.60;99.90;;;;;;5031358;28;20037;-58
2023/08/05 07:21:37;;;;;;;14.27;9.55;;;15.60;99.90;;;;;;5028477;28;20026;-57
2023/08/05 07:24:03;;;;;;;17.77;9.15;;;15.60;99.90;;;;;;5035906;28;20057;-57
2023/08/05 07:26:28;;;;;;;14.70;9.65;;;15.70;99.90;;;;;;5031332;28;20021;-58
2023/08/05 07:28:54;;;;;;;16.30;10.50;;;15.70;99.90;;;;;;5039666;28;20040;-59
2023/08/05 07:31:19;;;;;;;12.55;8.98;;;15.70;99.90;;;;;;5028980;28;20061;-52
2023/08/05 07:33:46;;;;;;;14.88;10.15;;;15.70;99.90;;;;;;5029429;28;20048;-56
2023/08/05 07:36:13;;;;;;;14.93;8.93;;;15.80;99.90;;;;;;5027318;28;20029;-56
2023/08/05 07:38:44;;;;;;;15.68;10.40;;;15.90;99.90;;;;;;5028394;28;20104;-59
2023/08/05 07:41:14;;;;;;;16.20;10.18;;;16.00;99.90;;;;;;5031408;28;20474;-57
2023/08/05 07:43:42;;;;;;;14.65;10.05;;;16.10;99.90;;;;;;5026217;28;20350;-52
2023/08/05 07:46:08;;;;;;;14.93;9.52;;;16.10;99.90;;;;;;5026919;28;20032;-55
2023/08/05 07:48:39;;;;;;;19.48;10.18;;;16.20;99.90;;;;;;5029211;28;20025;-57
2023/08/05 07:51:08;;;;;;;14.73;8.18;;;16.20;99.90;;;;;;5025778;28;20608;-58
2023/08/05 07:53:37;;;;;;;18.67;10.20;;;16.30;99.90;;;;;;5033739;28;20020;-57
2023/08/05 07:56:10;;;;;;;16.95;10.20;;;16.40;99.90;;;;;;5046189;28;20673;-57
2023/08/05 07:58:39;;;;;;;14.95;9.55;;;16.50;99.90;;;;;;5027192;28;20504;-54
2023/08/05 08:01:05;;;;;;;15.50;8.73;;;16.50;99.90;;;;;;5032719;28;20018;-57
2023/08/05 08:03:31;;;;;;;12.25;8.05;;;16.60;99.90;;;;;;5029426;28;20029;-56
2023/08/05 08:05:58;;;;;;;14.90;8.50;;;16.80;99.90;;;;;;5035117;28;20033;-57
2023/08/05 08:08:24;;;;;;;11.77;8.30;;;16.90;99.90;;;;;;5037821;28;20084;-60
2023/08/05 08:10:50;;;;;;;13.43;7.20;;;17.10;99.90;;;;;;5030514;28;20025;-56
2023/08/05 08:13:15;;;;;;;12.70;7.45;;;17.20;99.90;;;;;;5025983;28;20041;-54
2023/08/05 08:15:41;;;;;;;11.43;6.35;;;17.40;99.90;;;;;;5027808;28;20029;-57
2023/08/05 08:18:06;;;;;;;10.57;5.68;;;17.50;99.90;;;;;;5024080;28;20521;-58
2023/08/05 08:20:32;;;;;;;14.45;6.18;;;17.70;99.90;;;;;;5029977;28;20029;-56
2023/08/05 08:22:58;;;;;;;6.88;5.72;;;17.80;99.90;;;;;;5030714;28;20481;-55
2023/08/05 08:25:23;;;;;;;7.68;4.53;;;18.00;99.90;;;;;;5029909;28;20068;-59
2023/08/05 08:27:49;;;;;;;8.45;4.38;;;18.10;99.90;;;;;;5022878;28;20039;-59
2023/08/05 08:30:14;;;;;;;7.35;4.32;;;18.10;99.90;;;;;;5027349;28;20075;-56
2023/08/05 08:32:40;;;;;;;6.47;4.55;;;18.20;99.90;;;;;;5024296;28;20033;-57
2023/08/05 08:35:06;;;;;;;7.97;4.57;;;18.30;99.90;;;;;;5029399;28;20021;-57
2023/08/05 08:37:31;;;;;;;11.00;5.90;;;18.40;99.90;;;;;;5030182;28;20052;-58
2023/08/05 08:39:57;;;;;;;8.32;5.20;;;18.50;99.90;;;;;;5031696;28;20038;-59
2023/08/05 08:42:25;;;;;;;11.13;5.20;;;18.60;99.90;;;;;;5027730;28;20026;-54
2023/08/05 08:44:52;;;;;;;8.43;4.90;;;18.60;99.90;;;;;;5026569;28;20069;-57
2023/08/05 08:47:17;;;;;;;8.45;4.07;;;18.60;99.90;;;;;;5026570;28;20436;-56
2023/08/05 08:49:47;;;;;;;7.43;4.38;;;18.70;99.90;;;;;;5032952;28;20485;-55
2023/08/05 08:52:16;;;;;;;9.50;5.22;;;18.60;99.90;;;;;;5030746;28;20037;-55
2023/08/05 08:54:43;;;;;;;26.13;11.63;;;18.70;99.90;;;;;;5023775;28;20037;-54
2023/08/05 08:57:11;;;;;;;17.05;8.02;;;18.70;99.90;;;;;;5023020;28;20047;-57
2023/08/05 08:59:36;;;;;;;13.13;6.63;;;18.80;99.90;;;;;;5033136;28;20112;-53
2023/08/05 09:02:08;;;;;;;9.50;4.93;;;19.00;99.90;;;;;;5034613;28;20108;-57
2023/08/05 09:04:36;;;;;;;5.95;3.80;;;19.20;99.90;;;;;;5028039;28;20022;-57
2023/08/05 09:07:02;;;;;;;6.75;3.30;;;19.40;99.90;;;;;;5035408;28;20083;-58
2023/08/05 09:09:30;;;;;;;10.05;3.63;;;19.50;99.90;;;;;;5028128;28;20033;-58
2023/08/05 09:11:57;;;;;;;4.15;3.13;;;19.70;99.90;;;;;;5024422;28;20541;-54
2023/08/05 09:14:22;;;;;;;5.75;2.58;;;20.00;99.90;;;;;;5033620;28;20396;-54
2023/08/05 09:17:01;;;;;;;7.32;3.17;;;20.20;99.90;;;;;;5028846;28;20026;-53
2023/08/05 09:19:28;;;;;;;4.78;3.00;;;20.00;99.90;;;;;;5035223;28;20505;-55
2023/08/05 09:21:55;;;;;;;7.50;3.67;;;20.10;99.90;;;;;;5027462;28;20548;-56
2023/08/05 09:24:24;;;;;;;4.70;2.70;;;20.10;99.90;;;;;;5026087;28;20018;-58
2023/08/05 09:26:58;;;;;;;6.47;3.13;;;19.90;99.90;;;;;;5031062;28;20040;-58
2023/08/05 09:29:25;;;;;;;5.25;3.10;;;19.90;99.90;;;;;;5031249;28;20385;-58
2023/08/05 09:31:55;;;;;;;5.00;2.25;;;20.00;99.90;;;;;;5033700;28;20025;-57
2023/08/05 09:34:21;;;;;;;3.67;2.90;;;20.20;99.90;;;;;;5036578;28;20520;-59
2023/08/05 09:36:47;;;;;;;5.15;3.17;;;20.20;99.90;;;;;;5029992;28;20044;-57
2023/08/05 09:39:16;;;;;;;3.97;2.50;;;20.10;99.90;;;;;;5032776;28;20021;-57
2023/08/05 09:41:51;;;;;;;10.05;2.92;;;20.30;99.90;;;;;;5032169;28;20014;-54
2023/08/05 09:44:17;;;;;;;8.38;3.20;;;20.40;99.90;;;;;;5026762;28;20088;-56
2023/08/05 09:46:45;;;;;;;11.55;3.97;;;20.60;99.90;;;;;;5034641;28;20033;-59
2023/08/05 09:49:16;;;;;;;6.85;3.90;;;20.80;99.90;;;;;;5031324;28;20052;-60
2023/08/05 09:51:43;;;;;;;11.88;3.42;;;20.70;99.90;;;;;;5028167;28;20064;-60
2023/08/05 09:54:14;;;;;;;8.45;3.83;;;20.80;99.90;;;;;;5032443;28;20025;-56
2023/08/05 09:56:40;;;;;;;3.70;3.28;;;20.90;99.90;;;;;;5024278;28;20037;-58
2023/08/05 09:59:08;;;;;;;5.53;4.15;;;20.70;99.90;;;;;;5026490;28;20056;-57
2023/08/05 10:01:36;;;;;;;7.63;3.90;;;20.90;99.90;;;;;;5029879;28;20021;-56
2023/08/05 10:04:02;;;;;;;5.28;3.17;;;21.30;99.90;;;;;;5028182;28;20033;-57
2023/08/05 10:06:29;;;;;;;7.07;2.60;;;21.80;99.90;;;;;;5028927;28;20497;-54
2023/08/05 10:08:55;;;;;;;4.43;2.53;;;22.20;99.90;;;;;;5031163;28;20074;-57
2023/08/05 10:11:22;;;;;;;4.10;2.45;;;22.50;99.90;;;;;;5027184;28;20119;-58
2023/08/05 10:13:52;;;;;;;3.95;2.70;;;22.60;99.90;;;;;;5028536;28;20970;-57
2023/08/05 10:16:19;;;;;;;6.72;3.80;;;22.60;99.90;;;;;;5021242;28;21235;-57
2023/08/05 10:18:45;;;;;;;2.90;1.83;;;22.60;99.90;;;;;;5026206;28;20486;-59
2023/08/05 10:21:10;;;;;;;2.92;1.60;;;22.20;99.90;;;;;;5020276;28;20062;-56
2023/08/05 10:23:36;;;;;;;1.90;1.63;;;22.20;99.90;;;;;;5029081;28;20037;-55
2023/08/05 10:26:04;;;;;;;8.18;1.60;;;22.10;99.90;;;;;;5018385;28;20025;-53
2023/08/05 10:28:38;;;;;;;3.30;1.42;;;21.80;99.90;;;;;;5028850;28;20040;-55
2023/08/05 10:31:05;;;;;;;2.78;1.65;;;21.60;99.90;;;;;;5024928;28;20025;-55
2023/08/05 10:33:31;;;;;;;5.55;1.48;;;21.20;99.90;;;;;;5027687;28;20796;-54
2023/08/05 10:36:06;;;;;;;2.55;1.33;;;21.10;99.90;;;;;;5025587;28;20033;-54
2023/08/05 10:38:41;;;;;;;5.15;1.88;;;20.70;99.90;;;;;;5030156;28;20033;-53
2023/08/05 10:41:10;;;;;;;3.40;1.75;;;20.70;99.90;;;;;;5015713;28;21860;-59
2023/08/05 10:43:41;;;;;;;1.52;1.42;;;20.80;99.90;;;;;;5025311;28;20045;-59
2023/08/05 10:46:07;;;;;;;2.42;1.80;;;20.70;99.90;;;;;;5025953;28;20067;-57
2023/08/05 10:48:36;;;;;;;1.80;1.52;;;20.80;99.90;;;;;;5039860;28;20085;-55
2023/08/05 10:51:18;;;;;;;2.72;1.75;;;20.70;99.90;;;;;;5025151;28;20035;-57
2023/08/05 10:53:58;;;;;;;6.60;1.80;;;20.80;99.90;;;;;;5026170;28;20444;-58
2023/08/05 10:56:34;;;;;;;2.53;2.10;;;20.80;99.90;;;;;;5023903;28;20033;-58
2023/08/05 10:59:01;;;;;;;4.90;1.58;;;21.00;99.90;;;;;;5022675;28;20472;-56
2023/08/05 11:01:51;;;;;;;1.92;1.50;;;21.10;99.90;;;;;;5025430;28;20656;-58
2023/08/05 11:04:30;;;;;;;1.98;1.52;;;21.00;99.90;;;;;;5026670;28;20030;-58
2023/08/05 11:06:59;;;;;;;3.75;1.52;;;21.00;99.90;;;;;;5034951;28;20051;-57
2023/08/05 11:09:24;;;;;;;2.20;1.90;;;21.00;99.90;;;;;;5030083;28;20036;-57
2023/08/05 11:11:51;;;;;;;4.10;1.50;;;20.80;99.90;;;;;;5026546;28;20021;-57
2023/08/05 11:14:16;;;;;;;3.08;1.70;;;20.80;99.90;;;;;;5030644;28;20061;-59
2023/08/05 11:16:48;;;;;;;2.13;1.30;;;20.80;99.90;;;;;;5023511;28;20052;-56
2023/08/05 11:19:15;;;;;;;4.10;2.25;;;20.80;99.90;;;;;;5033640;28;20075;-63
2023/08/05 11:21:44;;;;;;;2.13;1.92;;;20.90;99.90;;;;;;5028831;28;20564;-58
2023/08/05 11:24:19;;;;;;;1.85;1.60;;;21.10;99.90;;;;;;5027265;28;20580;-55
2023/08/05 11:26:46;;;;;;;2.45;1.67;;;21.30;99.90;;;;;;5027918;28;20111;-57
2023/08/05 11:29:14;;;;;;;6.57;2.50;;;21.60;99.90;;;;;;5021555;28;20040;-58
2023/08/05 11:31:49;;;;;;;1.80;1.48;;;22.00;99.90;;;;;;5026576;28;20021;-56
2023/08/05 11:34:21;;;;;;;2.85;1.77;;;22.10;99.90;;;;;;5029064;28;20029;-57
2023/08/05 11:36:55;;;;;;;1.88;1.60;;;22.10;99.90;;;;;;5029434;28;20033;-57
2023/08/05 11:39:24;;;;;;;2.17;1.40;;;22.30;99.90;;;;;;5031802;28;20057;-56
2023/08/05 11:41:50;;;;;;;2.45;1.52;;;22.20;99.90;;;;;;5032003;28;20021;-55
2023/08/05 11:44:19;;;;;;;2.60;1.38;;;22.30;99.90;;;;;;5024923;28;20029;-58
2023/08/05 11:46:45;;;;;;;1.77;1.33;;;22.40;99.90;;;;;;5017930;28;20028;-53
2023/08/05 11:49:12;;;;;;;2.05;1.63;;;22.90;99.90;;;;;;5025951;28;20477;-52
2023/08/05 11:51:48;;;;;;;1.90;1.50;;;23.30;99.90;;;;;;5031829;28;20017;-52
2023/08/05 11:54:26;;;;;;;2.33;1.25;;;23.70;99.90;;;;;;5032035;28;20026;-59
2023/08/05 11:56:51;;;;;;;2.97;1.55;;;23.30;99.90;;;;;;5027190;28;20441;-56
2023/08/05 11:59:17;;;;;;;1.67;1.30;;;23.00;99.90;;;;;;5029230;28;20033;-57
2023/08/05 12:01:42;;;;;;;1.70;1.60;;;22.80;99.90;;;;;;5033351;28;20018;-56
2023/08/05 12:04:08;;;;;;;1.17;1.05;;;22.70;99.90;;;;;;5032250;28;20022;-56
2023/08/05 12:06:34;;;;;;;1.50;1.13;;;22.50;99.90;;;;;;5034702;28;20031;-57
2023/08/05 12:09:00;;;;;;;1.23;1.13;;;22.10;99.90;;;;;;5030504;28;20064;-55
2023/08/05 12:11:25;;;;;;;2.75;1.40;;;22.10;99.90;;;;;;5036900;28;20021;-57
2023/08/05 12:13:51;;;;;;;2.22;1.65;;;21.90;99.90;;;;;;5026806;28;20030;-57
2023/08/05 12:16:17;;;;;;;1.55;1.45;;;21.30;99.90;;;;;;5028140;28;20029;-57
2023/08/05 12:18:44;;;;;;;4.32;2.10;;;20.80;99.90;;;;;;5033785;28;20469;-58
2023/08/05 12:21:10;;;;;;;3.35;2.08;;;20.50;99.90;;;;;;5035189;28;20038;-57
2023/08/05 12:23:40;;;;;;;2.88;2.15;;;20.30;99.90;;;;;;5034227;28;20033;-55
2023/08/05 12:26:07;;;;;;;4.47;2.33;;;20.00;99.90;;;;;;5030961;28;20033;-58
2023/08/05 12:28:32;;;;;;;5.65;2.75;;;19.80;99.90;;;;;;5032189;28;20476;-54
2023/08/05 12:30:58;;;;;;;4.07;2.78;;;19.80;99.90;;;;;;5036948;28;20025;-57
2023/08/05 12:33:23;;;;;;;3.45;2.17;;;19.80;99.90;;;;;;5037772;28;20029;-58
2023/08/05 12:35:49;;;;;;;6.95;2.55;;;19.80;99.90;;;;;;5029593;28;20037;-56